createdAt,value
2019-05-19T00:03:03.160Z,52.61
2019-05-19T00:06:09.122Z,52.43
2019-05-19T00:09:16.670Z,52.92
2019-05-19T00:12:22.526Z,53.19
2019-05-19T00:15:28.197Z,52.83
2019-05-19T00:18:33.978Z,53.12
2019-05-19T00:21:39.610Z,52.69
2019-05-19T00:24:45.547Z,52.55
2019-05-19T00:27:54.035Z,52.46
2019-05-19T00:30:59.890Z,51.90
2019-05-19T00:34:05.559Z,52.40
2019-05-19T00:37:11.300Z,51.94
2019-05-19T00:40:17.160Z,51.75
2019-05-19T00:43:22.847Z,51.72
2019-05-19T00:46:29.664Z,52.18
2019-05-19T00:49:41.345Z,52.30
2019-05-19T00:52:43.171Z,52.52
2019-05-19T00:55:49.842Z,52.59
2019-05-19T00:58:57.245Z,53.66
2019-05-19T01:02:02.950Z,53.73
2019-05-19T01:05:08.959Z,53.80
2019-05-19T01:08:14.630Z,53.54
2019-05-19T01:11:20.466Z,53.28
2019-05-19T01:14:26.223Z,53.41
2019-05-19T01:17:31.899Z,53.09
2019-05-19T01:20:37.775Z,52.71
2019-05-19T01:23:43.491Z,52.77
2019-05-19T01:26:49.161Z,53.41
2019-05-19T01:29:54.821Z,52.78
2019-05-19T01:33:00.540Z,53.73
2019-05-19T01:36:06.394Z,52.64
2019-05-19T01:39:12.063Z,52.69
2019-05-19T01:42:18.809Z,52.06
2019-05-19T01:45:25.721Z,52.29
2019-05-19T01:48:31.400Z,52.66
2019-05-19T01:51:37.113Z,54.04
2019-05-19T01:54:42.795Z,52.68
2019-05-19T01:57:48.584Z,52.99
2019-05-19T02:00:55.246Z,52.43
2019-05-19T02:04:01.012Z,52.36
2019-05-19T02:07:07.664Z,52.66
2019-05-19T02:10:13.561Z,52.51
2019-05-19T02:13:19.256Z,52.65
2019-05-19T02:16:24.948Z,52.95
2019-05-19T02:19:30.624Z,52.47
2019-05-19T02:22:36.590Z,52.39
2019-05-19T02:25:42.356Z,52.18
2019-05-19T02:28:48.038Z,52.14
2019-05-19T02:31:53.699Z,52.21
2019-05-19T02:34:59.392Z,52.49
2019-05-19T02:38:05.239Z,52.29
2019-05-19T02:41:13.126Z,52.40
2019-05-19T02:44:20.216Z,52.78
2019-05-19T02:47:27.463Z,53.44
2019-05-19T02:50:50.876Z,53.59
2019-05-19T02:53:43.988Z,53.69
2019-05-19T02:56:51.465Z,54.33
2019-05-19T02:59:58.409Z,53.62
2019-05-19T03:03:04.183Z,54.04
2019-05-19T03:06:09.875Z,53.55
2019-05-19T03:09:15.558Z,54.32
2019-05-19T03:12:21.255Z,53.42
2019-05-19T03:15:27.136Z,53.67
2019-05-19T03:18:32.826Z,54.34
2019-05-19T03:21:38.513Z,53.92
2019-05-19T03:24:44.203Z,53.87
2019-05-19T03:27:49.923Z,53.45
2019-05-19T03:31:21.259Z,52.82
2019-05-19T03:34:27.282Z,53.00
2019-05-19T03:37:32.948Z,52.20
2019-05-19T03:40:38.722Z,52.33
2019-05-19T03:43:44.473Z,51.38
2019-05-19T03:46:50.299Z,51.16
2019-05-19T03:49:56.004Z,50.60
2019-05-19T03:53:01.733Z,49.66
2019-05-19T03:56:07.405Z,49.49
2019-05-19T03:59:13.183Z,49.18
2019-05-19T04:02:18.850Z,49.19
2019-05-19T04:05:24.579Z,49.72
2019-05-19T04:08:30.317Z,49.81
2019-05-19T04:11:36.048Z,49.16
2019-05-19T04:14:41.699Z,48.70
2019-05-19T04:17:47.409Z,48.63
2019-05-19T04:20:53.075Z,48.62
2019-05-19T04:23:58.798Z,48.84
2019-05-19T04:27:04.541Z,49.48
2019-05-19T04:30:10.696Z,49.99
2019-05-19T04:33:16.391Z,51.18
2019-05-19T04:36:22.137Z,50.97
2019-05-19T04:39:27.803Z,52.07
2019-05-19T04:42:33.467Z,51.08
2019-05-19T04:45:39.131Z,51.58
2019-05-19T04:48:44.830Z,52.01
2019-05-19T04:52:05.507Z,50.61
2019-05-19T04:54:57.932Z,50.68
2019-05-19T04:58:03.602Z,51.23
2019-05-19T05:01:09.293Z,51.03
2019-05-19T05:04:14.960Z,51.20
2019-05-19T05:07:20.719Z,50.80
2019-05-19T05:10:26.419Z,51.65
2019-05-19T05:13:32.127Z,50.29
2019-05-19T05:16:37.805Z,48.88
2019-05-19T05:19:43.574Z,47.71
2019-05-19T05:22:49.222Z,47.48
2019-05-19T05:25:54.953Z,46.69
2019-05-19T05:29:00.686Z,46.71
2019-05-19T05:32:06.389Z,45.56
2019-05-19T05:35:12.519Z,44.05
2019-05-19T05:38:18.167Z,43.17
2019-05-19T05:41:23.883Z,44.24
2019-05-19T05:44:29.593Z,43.48
2019-05-19T05:47:35.279Z,42.95
2019-05-19T05:50:41.286Z,43.01
2019-05-19T05:53:46.998Z,42.68
2019-05-19T05:56:52.702Z,40.93
2019-05-19T05:59:59.355Z,39.89
2019-05-19T06:03:05.112Z,39.83
2019-05-19T06:06:10.809Z,39.86
2019-05-19T06:09:16.621Z,38.39
2019-05-19T06:12:22.285Z,37.74
2019-05-19T06:15:28.007Z,38.35
2019-05-19T06:18:33.690Z,36.70
2019-05-19T06:21:42.109Z,37.77
2019-05-19T06:24:47.766Z,39.34
2019-05-19T06:27:53.515Z,39.66
2019-05-19T06:30:59.166Z,38.58
2019-05-19T06:34:05.227Z,38.02
2019-05-19T06:37:10.917Z,37.22
2019-05-19T06:40:16.818Z,37.22
2019-05-19T06:43:22.527Z,37.62
2019-05-19T06:46:28.236Z,36.55
2019-05-19T06:49:36.949Z,35.38
2019-05-19T06:52:42.737Z,35.35
2019-05-19T06:55:48.424Z,34.79
2019-05-19T06:58:54.239Z,34.32
2019-05-19T07:01:59.973Z,34.21
2019-05-19T07:05:06.102Z,34.24
2019-05-19T07:08:16.852Z,34.57
2019-05-19T07:11:29.150Z,33.78
2019-05-19T07:14:34.884Z,33.03
2019-05-19T07:17:42.863Z,32.68
2019-05-19T07:20:48.674Z,33.42
2019-05-19T07:23:54.367Z,33.10
2019-05-19T07:27:00.066Z,32.33
2019-05-19T07:30:06.087Z,32.89
2019-05-19T07:33:11.919Z,33.10
2019-05-19T07:36:17.824Z,34.12
2019-05-19T07:39:23.667Z,33.93
2019-05-19T07:42:29.512Z,34.58
2019-05-19T07:45:35.275Z,34.29
2019-05-19T07:48:40.961Z,36.03
2019-05-19T07:51:47.338Z,34.74
2019-05-19T07:54:55.929Z,33.87
2019-05-19T07:58:01.655Z,33.04
2019-05-19T08:01:07.539Z,33.28
2019-05-19T08:04:13.270Z,33.33
2019-05-19T08:07:18.930Z,32.82
2019-05-19T08:10:24.626Z,32.39
2019-05-19T08:13:30.299Z,31.54
2019-05-19T08:16:36.169Z,31.98
2019-05-19T08:19:44.389Z,32.13
2019-05-19T08:22:51.411Z,32.40
2019-05-19T08:25:58.235Z,32.42
2019-05-19T08:29:04.149Z,32.33
2019-05-19T08:32:09.823Z,32.94
2019-05-19T08:35:15.712Z,32.96
2019-05-19T08:38:22.827Z,33.85
2019-05-19T08:41:28.566Z,33.67
2019-05-19T08:44:34.217Z,33.47
2019-05-19T08:47:39.988Z,33.69
2019-05-19T08:50:45.670Z,34.26
2019-05-19T08:53:56.713Z,34.78
2019-05-19T08:57:03.886Z,35.29
2019-05-19T09:00:14.218Z,36.04
2019-05-19T09:03:19.882Z,36.41
2019-05-19T09:06:25.859Z,36.97
2019-05-19T09:09:31.545Z,36.55
2019-05-19T09:12:37.340Z,36.61
2019-05-19T09:15:43.114Z,37.36
2019-05-19T09:18:48.840Z,37.69
2019-05-19T09:21:54.657Z,37.45
2019-05-19T09:25:00.453Z,37.02
2019-05-19T09:28:07.040Z,37.02
2019-05-19T09:31:15.157Z,38.37
2019-05-19T09:34:20.918Z,38.80
2019-05-19T09:37:26.754Z,39.15
2019-05-19T09:40:32.459Z,39.62
2019-05-19T09:43:38.259Z,39.23
2019-05-19T09:46:43.970Z,39.30
2019-05-19T09:49:53.121Z,39.66
2019-05-19T09:52:58.849Z,39.53
2019-05-19T09:56:04.630Z,39.68
2019-05-19T09:59:10.280Z,40.10
2019-05-19T10:02:18.993Z,38.75
2019-05-19T10:05:26.261Z,38.42
2019-05-19T10:08:37.653Z,39.13
2019-05-19T10:12:08.571Z,39.35
2019-05-19T10:15:16.537Z,38.53
2019-05-19T10:18:23.650Z,39.56
2019-05-19T10:21:29.458Z,39.11
2019-05-19T10:24:35.373Z,39.42
2019-05-19T10:27:44.043Z,38.96
2019-05-19T10:30:49.856Z,38.14
2019-05-19T10:33:56.718Z,37.67
2019-05-19T10:37:04.011Z,38.17
2019-05-19T10:40:09.958Z,37.54
2019-05-19T10:43:17.340Z,38.13
2019-05-19T10:46:23.115Z,37.65
2019-05-19T10:49:35.738Z,35.12
2019-05-19T10:52:41.527Z,35.10
2019-05-19T10:56:10.291Z,34.65
2019-05-19T10:59:16.028Z,35.48
2019-05-19T11:02:21.763Z,34.31
2019-05-19T11:05:27.466Z,35.71
2019-05-19T11:08:33.304Z,35.07
2019-05-19T11:11:41.975Z,35.05
2019-05-19T11:14:49.130Z,34.83
2019-05-19T11:17:57.664Z,34.57
2019-05-19T11:21:03.439Z,34.86
2019-05-19T11:24:10.532Z,34.91
2019-05-19T11:27:16.188Z,34.93
2019-05-19T11:30:21.914Z,34.48
2019-05-19T11:33:27.650Z,34.63
2019-05-19T11:36:33.354Z,34.78
2019-05-19T11:39:39.158Z,34.63
2019-05-19T11:42:47.027Z,35.00
2019-05-19T11:45:52.391Z,34.51
2019-05-19T11:49:01.125Z,34.58
2019-05-19T11:52:07.129Z,34.32
2019-05-19T11:55:13.248Z,33.77
2019-05-19T11:58:19.096Z,33.90
2019-05-19T12:01:25.007Z,34.46
2019-05-19T12:08:56.118Z,34.07
2019-05-19T12:12:01.895Z,34.41
2019-05-19T12:15:08.973Z,35.05
2019-05-19T12:18:17.484Z,34.76
2019-05-19T12:21:23.388Z,34.92
2019-05-19T12:24:31.140Z,34.81
2019-05-19T12:27:36.896Z,34.68
2019-05-19T12:30:42.590Z,35.03
2019-05-19T12:33:52.466Z,34.72
2019-05-19T12:36:58.610Z,34.47
2019-05-19T12:40:04.580Z,34.16
2019-05-19T12:43:11.733Z,33.51
2019-05-19T12:46:17.518Z,32.72
2019-05-19T12:49:23.224Z,32.71
2019-05-19T12:52:32.087Z,32.81
2019-05-19T12:55:37.804Z,32.88
2019-05-19T12:58:43.582Z,32.68
2019-05-19T13:01:49.402Z,32.48
2019-05-19T13:05:04.740Z,32.65
2019-05-19T13:08:02.598Z,32.48
2019-05-19T13:11:08.438Z,32.41
2019-05-19T13:14:14.164Z,32.10
2019-05-19T13:17:21.416Z,32.39
2019-05-19T13:20:27.202Z,32.21
2019-05-19T13:23:32.879Z,32.62
2019-05-19T13:26:38.538Z,32.88
2019-05-19T13:29:44.374Z,33.30
2019-05-19T13:32:50.288Z,33.46
2019-05-19T13:35:55.956Z,33.90
2019-05-19T13:39:01.712Z,34.10
2019-05-19T13:42:09.236Z,34.30
2019-05-19T13:45:15.255Z,34.07
2019-05-19T13:48:20.936Z,34.04
2019-05-19T13:51:26.722Z,33.01
2019-05-19T13:54:32.411Z,31.03
2019-05-19T13:57:38.122Z,30.74
2019-05-19T14:00:44.063Z,30.50
2019-05-19T14:03:52.273Z,30.33
2019-05-19T14:06:57.994Z,29.85
2019-05-19T14:10:06.296Z,28.91
2019-05-19T14:13:11.952Z,28.37
2019-05-19T14:16:17.702Z,28.43
2019-05-19T14:19:23.419Z,28.58
2019-05-19T14:22:29.164Z,28.63
2019-05-19T14:25:34.934Z,29.00
2019-05-19T14:28:43.823Z,29.08
2019-05-19T14:31:49.488Z,28.92
2019-05-19T14:34:55.229Z,29.15
2019-05-19T14:38:00.883Z,29.09
2019-05-19T14:41:06.617Z,28.54
2019-05-19T14:44:12.274Z,28.55
2019-05-19T14:47:17.996Z,28.30
2019-05-19T14:50:23.924Z,28.34
2019-05-19T14:53:29.625Z,28.58
2019-05-19T14:56:35.371Z,28.67
2019-05-19T14:59:41.069Z,28.94
2019-05-19T15:02:47.895Z,29.37
2019-05-19T15:05:53.591Z,29.07
2019-05-19T15:08:59.525Z,28.89
2019-05-19T15:12:05.459Z,28.88
2019-05-19T15:15:12.321Z,29.43
2019-05-19T15:18:17.994Z,29.05
2019-05-19T15:21:23.708Z,28.84
2019-05-19T15:24:29.547Z,28.19
2019-05-19T15:27:35.366Z,30.92
2019-05-19T15:30:41.072Z,31.14
2019-05-19T15:33:47.927Z,30.78
2019-05-19T15:36:53.675Z,30.68
2019-05-19T15:39:59.381Z,31.18
2019-05-19T15:43:05.100Z,31.92
2019-05-19T15:46:10.820Z,32.34
2019-05-19T15:49:16.983Z,32.05
2019-05-19T15:52:22.712Z,33.42
2019-05-19T15:55:28.395Z,32.92
2019-05-19T15:58:34.161Z,32.66
2019-05-19T16:01:41.670Z,32.23
2019-05-19T16:04:47.650Z,31.11
2019-05-19T16:07:53.368Z,32.05
2019-05-19T16:10:59.063Z,27.73
2019-05-19T16:14:04.960Z,24.27
2019-05-19T16:17:10.658Z,23.61
2019-05-19T16:20:16.454Z,22.25
2019-05-19T16:23:22.183Z,20.87
2019-05-19T16:26:27.870Z,21.67
2019-05-19T16:29:33.587Z,20.57
2019-05-19T16:32:39.280Z,20.20
2019-05-19T16:35:45.027Z,20.42
2019-05-19T16:38:50.811Z,21.05
2019-05-19T16:41:57.646Z,21.62
2019-05-19T16:45:03.304Z,21.62
2019-05-19T16:48:09.229Z,21.61
2019-05-19T16:51:14.966Z,22.19
2019-05-19T16:54:26.566Z,22.85
2019-05-19T16:57:33.493Z,24.39
2019-05-19T17:00:39.192Z,25.16
2019-05-19T17:03:45.002Z,26.16
2019-05-19T17:06:50.718Z,26.74
2019-05-19T17:09:56.685Z,27.86
2019-05-19T17:13:02.334Z,29.22
2019-05-19T17:16:08.379Z,30.03
2019-05-19T17:19:14.141Z,30.72
2019-05-19T17:22:19.813Z,30.98
2019-05-19T17:25:25.491Z,31.87
2019-05-19T17:28:31.310Z,32.14
2019-05-19T17:31:36.980Z,32.04
2019-05-19T17:34:42.911Z,32.57
2019-05-19T17:37:48.561Z,32.77
2019-05-19T17:40:54.293Z,32.95
2019-05-19T17:44:00.092Z,33.53
2019-05-19T17:47:05.807Z,33.46
2019-05-19T17:50:21.701Z,33.23
2019-05-19T17:53:28.104Z,33.27
2019-05-19T17:56:34.365Z,33.81
2019-05-19T17:59:43.981Z,33.61
2019-05-19T18:02:49.679Z,33.92
2019-05-19T18:05:55.646Z,34.01
2019-05-19T18:09:05.743Z,34.15
2019-05-19T18:12:12.627Z,34.35
2019-05-19T18:15:18.377Z,34.93
2019-05-19T18:18:24.188Z,34.77
2019-05-19T18:21:31.041Z,34.65
2019-05-19T18:24:36.756Z,34.61
2019-05-19T18:27:43.578Z,34.38
2019-05-19T18:30:49.304Z,34.47
2019-05-19T18:33:54.973Z,34.43
2019-05-19T18:37:00.752Z,34.64
2019-05-19T18:40:06.947Z,34.82
2019-05-19T18:43:12.655Z,35.20
2019-05-19T18:46:19.393Z,34.93
2019-05-19T18:49:25.059Z,35.35
2019-05-19T18:52:30.831Z,35.20
2019-05-19T18:55:36.612Z,34.97
2019-05-19T18:58:42.382Z,35.10
2019-05-19T19:01:49.381Z,34.89
2019-05-19T19:04:55.055Z,35.08
2019-05-19T19:08:01.099Z,34.76
2019-05-19T19:11:06.901Z,34.53
2019-05-19T19:14:12.679Z,33.95
2019-05-19T19:17:18.438Z,33.67
2019-05-19T19:20:24.126Z,33.21
2019-05-19T19:23:30.120Z,33.14
2019-05-19T19:26:35.845Z,33.11
2019-05-19T19:29:41.563Z,32.96
2019-05-19T19:32:47.233Z,32.77
2019-05-19T19:35:53.026Z,32.68
2019-05-19T19:38:58.852Z,32.52
2019-05-19T19:42:04.559Z,32.40
2019-05-19T19:45:10.375Z,32.07
2019-05-19T19:48:16.061Z,32.40
2019-05-19T19:51:21.843Z,31.87
2019-05-19T19:54:27.715Z,31.75
2019-05-19T19:57:33.388Z,31.72
2019-05-19T20:00:41.147Z,31.29
2019-05-19T20:03:53.384Z,31.51
2019-05-19T20:06:56.851Z,31.53
2019-05-19T20:10:02.556Z,30.66
2019-05-19T20:13:11.426Z,30.65
2019-05-19T20:16:17.166Z,31.08
2019-05-19T20:19:22.859Z,31.29
2019-05-19T20:22:28.560Z,31.00
2019-05-19T20:25:37.079Z,31.21
2019-05-19T20:28:41.753Z,30.89
2019-05-19T20:31:47.888Z,30.66
2019-05-19T20:34:53.585Z,31.63
2019-05-19T20:38:00.372Z,32.41
2019-05-19T20:41:06.027Z,33.27
2019-05-19T20:44:11.758Z,33.39
2019-05-19T20:47:19.424Z,34.20
2019-05-19T20:50:25.402Z,33.96
2019-05-19T20:53:33.477Z,34.13
2019-05-19T20:56:41.813Z,34.28
2019-05-19T20:59:48.514Z,33.30
2019-05-19T21:02:54.234Z,33.88
2019-05-19T21:06:00.094Z,33.87
2019-05-19T21:09:06.290Z,34.11
2019-05-19T21:12:12.145Z,33.92
2019-05-19T21:15:18.034Z,33.61
2019-05-19T21:18:23.797Z,33.57
2019-05-19T21:21:29.455Z,33.77
2019-05-19T21:24:35.245Z,33.85
2019-05-19T21:27:43.689Z,34.04
2019-05-19T21:30:49.389Z,33.72
2019-05-19T21:33:55.159Z,33.81
2019-05-19T21:37:00.880Z,33.78
2019-05-19T21:40:07.868Z,33.58
2019-05-19T21:43:13.568Z,34.03
2019-05-19T21:46:19.361Z,33.51
2019-05-19T21:49:25.057Z,33.39
2019-05-19T21:52:30.866Z,33.78
2019-05-19T21:55:39.235Z,33.94
2019-05-19T21:58:44.977Z,33.54
2019-05-19T22:01:50.764Z,34.23
2019-05-19T22:04:56.506Z,34.17
2019-05-19T22:08:15.035Z,33.80
2019-05-19T22:11:20.769Z,33.89
2019-05-19T22:14:26.474Z,34.03
2019-05-19T22:17:32.186Z,34.18
2019-05-19T22:20:37.890Z,34.41
2019-05-19T22:23:43.583Z,34.57
2019-05-19T22:26:49.302Z,34.94
2019-05-19T22:29:55.055Z,34.81
2019-05-19T22:33:00.749Z,34.79
2019-05-19T22:36:07.385Z,35.08
2019-05-19T22:39:13.055Z,35.58
2019-05-19T22:42:18.870Z,35.73
2019-05-19T22:45:24.560Z,36.15
2019-05-19T22:48:30.238Z,36.65
2019-05-19T22:51:35.992Z,37.42
2019-05-19T22:54:41.692Z,38.04
2019-05-19T22:57:47.497Z,39.31
2019-05-19T23:00:53.271Z,38.59
2019-05-19T23:03:58.979Z,38.92
2019-05-19T23:07:04.680Z,38.93
2019-05-19T23:10:11.856Z,38.95
2019-05-19T23:13:17.615Z,39.52
2019-05-19T23:16:23.315Z,39.39
2019-05-19T23:19:29.048Z,39.10
2019-05-19T23:22:34.906Z,39.74
2019-05-19T23:25:40.639Z,39.95
2019-05-19T23:28:49.369Z,39.90
2019-05-19T23:32:06.905Z,39.69
2019-05-19T23:35:07.441Z,39.30
2019-05-19T23:38:13.234Z,38.79
2019-05-19T23:41:18.903Z,38.70
2019-05-19T23:44:24.651Z,39.23
2019-05-19T23:47:30.481Z,39.64
2019-05-19T23:50:36.166Z,39.48
2019-05-19T23:53:44.973Z,39.45
2019-05-19T23:56:51.671Z,39.31
2019-05-19T23:59:57.431Z,40.15
